Time;durP1;ratioP1;P1;durP2;ratioP2;P2;SDS_P1;SDS_P2;PMS_P1;PMS_P2;Temp;Humidity;BMP_temperature;BMP_pressure;BME280_temperature;BME280_humidity;BME280_pressure;Samples;Min_cycle;Max_cycle;Signal;HPM_P1;HPM_P2
2021/05/07 00:02:21;;;;;;;9.77;8.63;;;9.00;99.90;;;;;;5073944;28;20185;-45
2021/05/07 00:04:47;;;;;;;8.97;8.07;;;9.10;99.90;;;;;;5073935;28;20177;-45
2021/05/07 00:07:12;;;;;;;9.47;8.17;;;9.10;99.90;;;;;;5073634;28;20562;-46
2021/05/07 00:09:38;;;;;;;8.57;7.17;;;9.10;99.90;;;;;;5073276;28;20192;-52
2021/05/07 00:12:05;;;;;;;9.63;7.70;;;9.10;99.90;;;;;;5073342;28;20186;-52
2021/05/07 00:14:31;;;;;;;8.17;7.27;;;9.10;99.90;;;;;;5074158;28;20220;-51
2021/05/07 00:16:57;;;;;;;8.27;7.37;;;9.10;99.90;;;;;;5073855;28;20675;-44
2021/05/07 00:19:23;;;;;;;7.93;6.70;;;9.10;99.90;;;;;;5074452;28;20182;-44
2021/05/07 00:21:48;;;;;;;7.67;6.67;;;9.10;99.90;;;;;;5073757;28;20185;-48
2021/05/07 00:24:14;;;;;;;7.30;6.30;;;9.10;99.90;;;;;;5073542;28;20224;-46
2021/05/07 00:26:39;;;;;;;7.07;6.37;;;9.10;99.90;;;;;;5073643;28;20649;-50
2021/05/07 00:29:05;;;;;;;8.80;7.20;;;9.10;99.90;;;;;;5073467;28;20232;-44
2021/05/07 00:31:30;;;;;;;7.03;6.33;;;9.20;99.90;;;;;;5073430;28;20632;-44
2021/05/07 00:33:56;;;;;;;6.77;6.00;;;9.10;99.90;;;;;;5073840;28;20174;-45
2021/05/07 00:36:21;;;;;;;8.43;6.40;;;9.20;99.90;;;;;;5073951;28;20530;-48
2021/05/07 00:38:47;;;;;;;6.37;5.60;;;9.20;99.90;;;;;;5073431;28;20182;-48
2021/05/07 00:41:13;;;;;;;5.40;4.87;;;9.20;99.90;;;;;;5073132;28;20637;-51
2021/05/07 00:43:40;;;;;;;5.70;5.10;;;9.20;99.90;;;;;;5073620;28;20202;-48
2021/05/07 00:46:06;;;;;;;5.00;4.03;;;9.20;99.90;;;;;;5073411;28;20201;-49
2021/05/07 00:48:32;;;;;;;3.93;3.43;;;9.20;99.90;;;;;;5073873;28;20167;-46
2021/05/07 00:50:57;;;;;;;4.33;3.30;;;9.10;99.90;;;;;;5073570;28;20175;-46
2021/05/07 00:53:24;;;;;;;3.33;3.00;;;9.10;99.90;;;;;;5073976;28;20174;-43
2021/05/07 00:55:49;;;;;;;2.60;2.17;;;9.10;99.90;;;;;;5073409;28;20178;-51
2021/05/07 00:58:15;;;;;;;2.20;2.00;;;9.10;99.90;;;;;;5073308;28;20196;-45
2021/05/07 01:00:41;;;;;;;2.43;2.07;;;9.10;99.90;;;;;;5073779;28;20178;-51
2021/05/07 01:03:07;;;;;;;1.87;1.70;;;9.10;99.90;;;;;;5073415;28;20177;-48
2021/05/07 01:05:32;;;;;;;1.57;1.40;;;9.00;99.90;;;;;;5073347;28;20622;-47
2021/05/07 01:07:58;;;;;;;1.83;1.30;;;9.00;99.90;;;;;;5073155;28;20193;-47
2021/05/07 01:10:24;;;;;;;2.33;1.30;;;9.10;99.90;;;;;;5073257;28;20171;-45
2021/05/07 01:12:50;;;;;;;2.20;1.10;;;9.00;99.90;;;;;;5073415;28;20175;-44
2021/05/07 01:15:18;;;;;;;1.73;1.23;;;9.10;99.90;;;;;;5073503;28;20557;-49
2021/05/07 01:17:56;;;;;;;2.60;1.20;;;9.10;99.90;;;;;;5073444;28;20581;-49
2021/05/07 01:20:27;;;;;;;1.17;1.07;;;9.10;99.90;;;;;;5073254;28;20590;-44
2021/05/07 01:22:56;;;;;;;1.37;1.20;;;9.10;99.90;;;;;;5077027;28;20240;-46
2021/05/07 01:25:30;;;;;;;2.07;1.47;;;9.10;99.90;;;;;;5076724;28;20177;-49
2021/05/07 01:28:00;;;;;;;1.20;1.10;;;9.10;99.90;;;;;;5077180;28;20186;-48
2021/05/07 01:30:29;;;;;;;0.97;0.90;;;9.20;99.90;;;;;;5076579;28;20204;-50
2021/05/07 01:32:54;;;;;;;1.33;1.00;;;9.20;99.90;;;;;;5076427;28;20178;-50
2021/05/07 01:35:23;;;;;;;3.17;1.03;;;9.20;99.90;;;;;;5076608;28;20585;-44
2021/05/07 01:37:51;;;;;;;0.97;0.93;;;9.20;99.90;;;;;;5076346;28;20570;-44
2021/05/07 01:40:25;;;;;;;1.37;1.27;;;9.20;99.90;;;;;;5076410;28;20171;-49
2021/05/07 01:42:52;;;;;;;1.30;1.17;;;9.20;99.90;;;;;;5076671;28;20179;-48
2021/05/07 01:45:20;;;;;;;1.67;1.23;;;9.30;99.90;;;;;;5076951;28;20174;-44
2021/05/07 01:47:46;;;;;;;1.30;0.80;;;9.30;99.90;;;;;;5077098;28;20202;-49
2021/05/07 01:50:15;;;;;;;1.00;0.90;;;9.30;99.90;;;;;;5076432;28;20507;-49
2021/05/07 01:52:41;;;;;;;1.53;1.00;;;9.30;99.90;;;;;;5076061;28;20178;-45
2021/05/07 01:55:10;;;;;;;1.00;0.90;;;9.30;99.90;;;;;;5076324;28;20179;-50
2021/05/07 01:57:36;;;;;;;1.37;1.03;;;9.30;99.90;;;;;;5076077;28;20218;-48
2021/05/07 02:00:07;;;;;;;1.07;0.90;;;9.30;99.90;;;;;;5076733;28;20197;-51
2021/05/07 02:02:33;;;;;;;0.97;0.87;;;9.30;99.90;;;;;;5075756;28;20175;-48
2021/05/07 02:04:59;;;;;;;1.00;0.87;;;9.30;99.90;;;;;;5076053;28;20228;-45
2021/05/07 02:07:24;;;;;;;1.90;1.20;;;9.30;99.90;;;;;;5076310;28;20210;-46
2021/05/07 02:09:50;;;;;;;1.33;1.20;;;9.30;99.90;;;;;;5076234;28;20179;-46
2021/05/07 02:12:16;;;;;;;1.77;0.80;;;9.30;99.90;;;;;;5075676;28;20265;-49
2021/05/07 02:14:41;;;;;;;3.50;1.40;;;9.40;99.90;;;;;;5076349;28;20186;-49
2021/05/07 02:17:07;;;;;;;2.53;1.10;;;9.40;99.90;;;;;;5075615;28;20237;-49
2021/05/07 02:19:33;;;;;;;3.07;1.47;;;9.40;99.90;;;;;;5075868;28;20204;-45
2021/05/07 02:21:59;;;;;;;2.50;1.43;;;9.30;99.90;;;;;;5075469;28;20245;-44
2021/05/07 02:24:24;;;;;;;1.73;1.10;;;9.30;99.90;;;;;;5075633;28;20635;-50
2021/05/07 02:26:50;;;;;;;1.77;1.17;;;9.40;99.90;;;;;;5075435;28;20217;-44
2021/05/07 02:29:17;;;;;;;2.90;1.10;;;9.40;99.90;;;;;;5075869;28;20181;-53
2021/05/07 02:31:43;;;;;;;1.73;0.97;;;9.50;99.90;;;;;;5075562;28;20174;-50
2021/05/07 02:34:10;;;;;;;1.20;1.00;;;9.50;99.90;;;;;;5074769;28;20484;-47
2021/05/07 02:36:36;;;;;;;2.10;1.03;;;9.50;99.90;;;;;;5075563;28;20213;-49
2021/05/07 02:39:02;;;;;;;1.50;1.10;;;9.60;99.90;;;;;;5075251;28;20190;-45
2021/05/07 02:41:27;;;;;;;3.03;1.27;;;9.60;99.90;;;;;;5075247;28;20178;-49
2021/05/07 02:43:53;;;;;;;1.90;1.30;;;9.60;99.90;;;;;;5075863;28;20220;-50
2021/05/07 02:46:19;;;;;;;1.30;0.80;;;9.70;99.90;;;;;;5075661;28;20190;-53
2021/05/07 02:48:44;;;;;;;2.87;1.20;;;9.60;99.90;;;;;;5075648;28;20182;-49
2021/05/07 02:51:10;;;;;;;1.70;1.20;;;9.60;99.90;;;;;;5074958;28;20167;-45
2021/05/07 02:53:35;;;;;;;1.73;1.17;;;9.50;99.90;;;;;;5075136;28;20196;-45
2021/05/07 02:56:01;;;;;;;2.17;1.20;;;9.50;99.90;;;;;;5068821;28;20202;-50
2021/05/07 02:58:26;;;;;;;1.43;1.00;;;9.50;99.90;;;;;;5071773;28;20638;-43
2021/05/07 03:00:52;;;;;;;1.50;1.13;;;9.40;99.90;;;;;;5074610;28;20170;-46
2021/05/07 03:03:17;;;;;;;2.07;1.20;;;9.50;99.90;;;;;;5074990;28;20216;-50
2021/05/07 03:05:43;;;;;;;2.07;1.10;;;9.50;99.90;;;;;;5074721;28;20170;-53
2021/05/07 03:08:09;;;;;;;2.67;1.23;;;9.50;99.90;;;;;;5074663;28;20170;-52
2021/05/07 03:10:34;;;;;;;1.17;1.03;;;9.50;99.90;;;;;;5071749;28;20174;-50
2021/05/07 03:13:00;;;;;;;2.67;1.10;;;9.40;99.90;;;;;;5065617;28;20590;-49
2021/05/07 03:15:25;;;;;;;3.33;1.23;;;9.40;99.90;;;;;;5058081;28;20179;-45
2021/05/07 03:17:53;;;;;;;1.60;1.40;;;9.30;99.90;;;;;;5054468;28;20207;-43
2021/05/07 03:20:19;;;;;;;2.33;1.40;;;9.30;99.90;;;;;;5054998;28;20262;-49
2021/05/07 03:22:44;;;;;;;1.40;1.30;;;9.30;99.90;;;;;;5054335;28;20222;-43
2021/05/07 03:25:10;;;;;;;2.10;1.20;;;9.30;99.90;;;;;;5054431;28;20199;-49
2021/05/07 03:27:36;;;;;;;3.27;1.50;;;9.30;99.90;;;;;;5054077;28;20605;-43
2021/05/07 03:30:03;;;;;;;1.30;1.20;;;9.30;99.90;;;;;;5054504;28;20183;-45
2021/05/07 03:32:29;;;;;;;2.50;1.60;;;9.30;99.90;;;;;;5054301;28;20618;-48
2021/05/07 03:34:54;;;;;;;2.53;1.40;;;9.20;99.90;;;;;;5054778;28;20183;-50
2021/05/07 03:37:20;;;;;;;2.13;1.47;;;9.20;99.90;;;;;;5053969;28;20215;-52
2021/05/07 03:39:46;;;;;;;2.07;1.50;;;9.20;99.90;;;;;;5054424;28;20207;-43
2021/05/07 03:42:11;;;;;;;1.80;1.33;;;9.20;99.90;;;;;;5053908;28;20179;-49
2021/05/07 03:44:37;;;;;;;2.50;1.43;;;9.20;99.90;;;;;;5054052;28;20598;-48
2021/05/07 03:47:03;;;;;;;2.40;1.60;;;9.20;99.90;;;;;;5053954;28;20253;-51
2021/05/07 03:49:30;;;;;;;2.00;1.80;;;9.20;99.90;;;;;;5054212;28;20182;-53
2021/05/07 03:51:56;;;;;;;2.87;1.40;;;9.20;99.90;;;;;;5059205;28;20253;-49
2021/05/07 03:54:22;;;;;;;2.30;1.73;;;9.20;99.90;;;;;;5062735;28;20181;-44
2021/05/07 03:56:47;;;;;;;2.87;1.60;;;9.20;99.90;;;;;;5061045;28;20196;-45
2021/05/07 03:59:14;;;;;;;2.23;1.37;;;9.20;99.90;;;;;;5053904;28;20186;-51
2021/05/07 04:01:39;;;;;;;1.27;1.17;;;9.20;99.90;;;;;;5053623;28;20225;-50
2021/05/07 04:04:07;;;;;;;2.90;1.63;;;9.20;99.90;;;;;;5053894;28;20183;-45
2021/05/07 04:06:32;;;;;;;1.60;1.50;;;9.20;99.90;;;;;;5053749;28;20282;-54
2021/05/07 04:11:32;;;;;;;2.67;1.57;;;9.20;99.90;;;;;;5036810;28;20189;-45
2021/05/07 04:13:57;;;;;;;2.30;1.50;;;9.30;99.90;;;;;;5053982;28;20183;-44
2021/05/07 04:16:23;;;;;;;2.00;1.10;;;9.30;99.90;;;;;;5053626;28;20290;-50
2021/05/07 04:18:48;;;;;;;1.67;1.20;;;9.30;99.90;;;;;;5068781;28;20189;-49
2021/05/07 04:21:14;;;;;;;1.93;1.23;;;9.30;99.90;;;;;;5073533;28;20232;-48
2021/05/07 04:23:40;;;;;;;1.43;1.30;;;9.20;99.90;;;;;;5074245;28;20617;-46
2021/05/07 04:26:05;;;;;;;1.40;1.30;;;9.20;99.90;;;;;;5073621;28;20685;-46
2021/05/07 04:28:31;;;;;;;1.30;1.20;;;9.30;99.90;;;;;;5073888;28;20206;-47
2021/05/07 04:30:56;;;;;;;1.90;1.20;;;9.30;99.90;;;;;;5073939;28;20163;-50
2021/05/07 04:33:22;;;;;;;1.43;1.20;;;9.40;99.90;;;;;;5058735;28;20210;-44
2021/05/07 04:35:48;;;;;;;2.20;1.40;;;9.40;99.90;;;;;;5068562;28;20650;-51
2021/05/07 04:38:13;;;;;;;1.30;1.20;;;9.50;99.90;;;;;;5063511;28;20673;-51
2021/05/07 04:40:39;;;;;;;3.70;1.83;;;9.50;99.90;;;;;;5065049;28;20641;-46
2021/05/07 04:43:05;;;;;;;1.77;1.60;;;9.50;99.90;;;;;;5073439;28;20224;-50
2021/05/07 04:45:31;;;;;;;2.10;1.40;;;9.50;99.90;;;;;;5072380;28;20174;-51
2021/05/07 04:47:58;;;;;;;1.40;1.30;;;9.40;99.90;;;;;;5068416;28;20289;-50
2021/05/07 04:50:24;;;;;;;1.37;1.30;;;9.40;99.90;;;;;;5053955;28;20202;-45
2021/05/07 04:52:49;;;;;;;2.27;1.40;;;9.30;99.90;;;;;;5055540;28;20195;-48
2021/05/07 04:55:15;;;;;;;2.00;1.50;;;9.30;99.90;;;;;;5053178;28;20179;-48
2021/05/07 04:57:41;;;;;;;3.50;1.40;;;9.20;99.90;;;;;;5056209;28;20206;-46
2021/05/07 05:00:08;;;;;;;1.83;1.60;;;9.20;99.90;;;;;;5056497;28;20627;-55
2021/05/07 05:02:34;;;;;;;1.77;1.50;;;9.20;99.90;;;;;;5075581;28;20176;-47
2021/05/07 05:05:01;;;;;;;1.70;1.60;;;9.10;99.90;;;;;;5082871;28;20195;-48
2021/05/07 05:07:26;;;;;;;1.80;1.70;;;9.00;99.90;;;;;;5088409;28;20646;-44
2021/05/07 05:09:52;;;;;;;1.50;1.40;;;9.10;99.90;;;;;;5077535;28;20180;-49
2021/05/07 05:12:17;;;;;;;1.47;1.37;;;9.10;99.90;;;;;;5075523;28;20205;-45
2021/05/07 05:14:43;;;;;;;1.43;1.33;;;9.20;99.90;;;;;;5091249;28;20231;-52
2021/05/07 05:17:08;;;;;;;1.40;1.30;;;9.30;99.90;;;;;;5081446;28;20193;-48
2021/05/07 05:19:34;;;;;;;1.30;1.20;;;9.40;99.90;;;;;;5084681;28;20261;-47
2021/05/07 05:21:59;;;;;;;1.90;1.60;;;9.50;99.90;;;;;;5096809;28;20636;-49
2021/05/07 05:24:25;;;;;;;1.50;1.40;;;9.60;99.90;;;;;;5071978;28;20171;-48
2021/05/07 05:26:51;;;;;;;3.10;1.93;;;9.60;99.90;;;;;;5054070;28;20215;-52
2021/05/07 05:29:16;;;;;;;2.07;1.90;;;9.70;99.90;;;;;;5075803;28;20182;-49
2021/05/07 05:31:42;;;;;;;2.57;1.70;;;9.70;99.90;;;;;;5074583;28;20178;-45
2021/05/07 05:34:07;;;;;;;1.60;1.50;;;9.80;99.90;;;;;;5073332;28;20178;-52
2021/05/07 05:36:33;;;;;;;1.80;1.70;;;9.80;99.90;;;;;;5075694;28;20547;-53
2021/05/07 05:38:59;;;;;;;3.67;2.07;;;9.90;99.90;;;;;;5058870;28;20206;-44
2021/05/07 05:41:24;;;;;;;2.03;1.83;;;9.90;99.90;;;;;;5056018;28;20176;-46
2021/05/07 05:43:50;;;;;;;3.37;1.87;;;9.90;99.90;;;;;;5060353;28;20182;-48
2021/05/07 05:46:16;;;;;;;2.03;1.93;;;9.90;99.90;;;;;;5068212;28;20190;-44
2021/05/07 05:48:42;;;;;;;2.73;1.90;;;9.90;99.90;;;;;;5057994;28;20175;-49
2021/05/07 05:51:08;;;;;;;2.10;1.90;;;9.80;99.90;;;;;;5055156;28;20252;-52
2021/05/07 05:53:33;;;;;;;2.40;1.97;;;9.80;99.90;;;;;;5072450;28;20182;-48
2021/05/07 05:55:59;;;;;;;2.20;2.10;;;9.70;99.90;;;;;;5086594;28;20229;-44
2021/05/07 05:58:25;;;;;;;2.13;2.03;;;9.80;99.90;;;;;;5075602;28;20174;-46
2021/05/07 06:00:51;;;;;;;2.20;2.10;;;9.80;99.90;;;;;;5076148;28;20171;-49
2021/05/07 06:03:17;;;;;;;2.60;2.40;;;9.70;99.90;;;;;;5066130;28;20261;-50
2021/05/07 06:05:43;;;;;;;1.97;1.87;;;9.70;99.90;;;;;;5057206;28;20186;-51
2021/05/07 06:08:09;;;;;;;2.83;2.63;;;9.70;99.90;;;;;;5054812;28;20257;-48
2021/05/07 06:10:35;;;;;;;3.57;2.67;;;9.50;99.90;;;;;;5057051;28;20333;-44
2021/05/07 06:13:00;;;;;;;3.10;2.63;;;9.50;99.90;;;;;;5055672;28;20250;-44
2021/05/07 06:15:26;;;;;;;3.13;2.83;;;9.50;99.90;;;;;;5067996;28;20214;-45
2021/05/07 06:17:51;;;;;;;3.43;3.13;;;9.50;99.90;;;;;;5073404;28;20213;-45
2021/05/07 06:20:17;;;;;;;3.47;3.17;;;9.60;99.90;;;;;;5055906;28;20246;-49
2021/05/07 06:22:44;;;;;;;3.83;3.43;;;9.60;99.90;;;;;;5055564;28;20616;-50
2021/05/07 06:25:12;;;;;;;3.60;3.30;;;9.50;99.90;;;;;;5054768;28;20280;-49
2021/05/07 06:27:38;;;;;;;3.70;3.40;;;9.40;99.90;;;;;;5055717;28;20542;-47
2021/05/07 06:30:06;;;;;;;3.63;3.33;;;9.30;99.90;;;;;;5054797;28;20181;-49
2021/05/07 06:32:32;;;;;;;3.50;3.20;;;9.30;99.90;;;;;;5055414;28;20191;-49
2021/05/07 06:34:57;;;;;;;3.80;3.50;;;9.30;99.90;;;;;;5055327;28;20206;-49
2021/05/07 06:37:23;;;;;;;4.43;3.40;;;9.40;99.90;;;;;;5055343;28;20301;-45
2021/05/07 06:39:48;;;;;;;4.60;3.50;;;9.50;99.90;;;;;;5055652;28;20179;-50
2021/05/07 06:42:14;;;;;;;3.63;3.10;;;9.80;99.90;;;;;;5054939;28;20229;-49
2021/05/07 06:44:40;;;;;;;3.73;2.90;;;9.90;99.90;;;;;;5055445;28;20206;-51
2021/05/07 06:47:05;;;;;;;3.43;3.13;;;9.90;99.90;;;;;;5055604;28;20199;-48
2021/05/07 06:49:31;;;;;;;3.33;3.03;;;9.70;99.90;;;;;;5055978;28;20278;-48
2021/05/07 06:51:56;;;;;;;2.90;2.70;;;9.60;99.90;;;;;;5054906;28;20274;-45
2021/05/07 06:54:26;;;;;;;2.80;2.60;;;9.70;99.90;;;;;;5055179;28;20250;-46
2021/05/07 06:56:55;;;;;;;2.60;2.40;;;9.70;99.90;;;;;;5054957;28;20206;-49
2021/05/07 06:59:21;;;;;;;3.20;2.90;;;9.70;99.90;;;;;;5054945;28;20655;-49
2021/05/07 07:01:47;;;;;;;3.07;2.77;;;9.80;99.90;;;;;;5054985;28;20179;-49
2021/05/07 07:04:12;;;;;;;2.70;2.50;;;9.70;99.90;;;;;;5054984;28;20565;-49
2021/05/07 07:06:38;;;;;;;3.17;2.47;;;9.90;99.90;;;;;;5054671;28;20659;-47
2021/05/07 07:09:04;;;;;;;3.73;2.60;;;10.20;99.90;;;;;;5054948;28;20250;-50
2021/05/07 07:11:29;;;;;;;2.53;2.33;;;10.30;99.90;;;;;;5054530;28;20177;-49
2021/05/07 07:13:55;;;;;;;2.63;2.43;;;10.40;99.90;;;;;;5054542;28;20175;-49
2021/05/07 07:16:20;;;;;;;2.73;2.53;;;10.50;99.90;;;;;;5054460;28;20199;-47
2021/05/07 07:18:46;;;;;;;3.10;2.67;;;10.30;99.90;;;;;;5054291;28;20171;-53
2021/05/07 07:21:11;;;;;;;2.67;2.30;;;10.20;99.90;;;;;;5054256;28;20171;-46
2021/05/07 07:23:38;;;;;;;2.53;2.30;;;10.10;99.90;;;;;;5054732;28;20205;-49
2021/05/07 07:26:08;;;;;;;2.47;2.27;;;9.90;99.90;;;;;;5054406;28;20211;-49
2021/05/07 07:28:36;;;;;;;2.27;2.10;;;9.90;99.90;;;;;;5056226;28;20229;-47
2021/05/07 07:31:02;;;;;;;2.13;1.93;;;9.70;99.90;;;;;;5074076;28;20174;-46
2021/05/07 07:33:28;;;;;;;2.30;2.10;;;9.70;99.90;;;;;;5074296;28;20166;-53
2021/05/07 07:35:54;;;;;;;2.17;2.07;;;9.60;99.90;;;;;;5074382;28;20225;-45
2021/05/07 07:38:20;;;;;;;2.20;2.00;;;9.60;99.90;;;;;;5074435;28;20547;-46
2021/05/07 07:40:46;;;;;;;2.30;2.10;;;9.60;99.90;;;;;;5074816;28;20183;-45
2021/05/07 07:43:11;;;;;;;2.10;1.93;;;9.70;99.90;;;;;;5074444;28;20216;-49
2021/05/07 07:45:37;;;;;;;2.27;2.17;;;9.70;99.90;;;;;;5074708;28;20294;-46
2021/05/07 07:48:03;;;;;;;2.80;2.60;;;9.70;99.90;;;;;;5074763;28;20209;-46
2021/05/07 07:50:28;;;;;;;2.50;2.30;;;9.70;99.90;;;;;;5074020;28;20190;-46
2021/05/07 07:52:54;;;;;;;2.70;2.50;;;9.80;99.90;;;;;;5074125;28;20186;-46
2021/05/07 07:55:20;;;;;;;2.50;2.30;;;9.90;99.90;;;;;;5074597;28;20193;-46
2021/05/07 07:57:45;;;;;;;2.83;2.33;;;10.00;99.90;;;;;;5074293;28;20214;-46
2021/05/07 08:00:11;;;;;;;3.03;2.60;;;10.10;99.90;;;;;;5074578;28;20508;-50
2021/05/07 08:02:37;;;;;;;2.60;2.40;;;10.20;99.90;;;;;;5074000;28;20171;-48
2021/05/07 08:05:03;;;;;;;3.00;2.80;;;10.10;99.90;;;;;;5074291;28;20509;-46
2021/05/07 08:07:29;;;;;;;2.73;2.53;;;10.10;99.90;;;;;;5074217;28;20247;-48
2021/05/07 08:09:55;;;;;;;3.93;2.50;;;10.10;99.90;;;;;;5074342;28;20550;-50
2021/05/07 08:12:20;;;;;;;2.87;2.67;;;10.10;99.90;;;;;;5073520;28;20181;-49
2021/05/07 08:14:46;;;;;;;2.07;1.90;;;9.90;99.90;;;;;;5074336;28;20175;-47
2021/05/07 08:17:11;;;;;;;3.70;2.13;;;9.80;99.90;;;;;;5073779;28;20190;-49
2021/05/07 08:19:37;;;;;;;3.30;2.43;;;9.70;99.90;;;;;;5073987;28;20162;-45
2021/05/07 08:22:03;;;;;;;2.03;1.93;;;9.60;99.90;;;;;;5074058;28;20511;-50
2021/05/07 08:24:29;;;;;;;2.50;2.30;;;9.60;99.90;;;;;;5074081;28;20181;-50
2021/05/07 08:26:57;;;;;;;2.40;2.20;;;9.70;99.90;;;;;;5073519;28;20202;-47
2021/05/07 08:29:22;;;;;;;2.70;2.50;;;9.70;99.90;;;;;;5073572;28;20182;-46
2021/05/07 08:31:48;;;;;;;2.07;1.97;;;9.90;99.90;;;;;;5075629;28;20178;-46
2021/05/07 08:34:15;;;;;;;2.13;2.00;;;10.00;99.90;;;;;;5077776;28;20546;-48
2021/05/07 08:36:40;;;;;;;2.23;2.03;;;10.00;99.90;;;;;;5078081;28;20232;-47
2021/05/07 08:39:06;;;;;;;2.03;1.93;;;10.00;99.90;;;;;;5077923;28;20202;-46
2021/05/07 08:41:31;;;;;;;1.90;1.80;;;10.10;99.90;;;;;;5077522;28;20170;-48
2021/05/07 08:43:57;;;;;;;1.90;1.80;;;10.30;99.90;;;;;;5077561;28;20182;-46
2021/05/07 08:46:23;;;;;;;2.20;2.00;;;10.40;99.90;;;;;;5077915;28;20244;-49
2021/05/07 08:48:49;;;;;;;1.90;1.80;;;10.30;99.90;;;;;;5077757;28;20534;-46
2021/05/07 08:51:14;;;;;;;2.27;2.07;;;10.30;99.90;;;;;;5077466;28;20186;-45
2021/05/07 08:53:41;;;;;;;1.80;1.70;;;10.20;99.90;;;;;;5059455;28;21029;-49
2021/05/07 08:56:08;;;;;;;2.03;1.70;;;10.20;99.90;;;;;;5077495;28;20707;-49
2021/05/07 08:58:34;;;;;;;2.17;1.97;;;10.30;99.90;;;;;;5078211;28;20205;-53
2021/05/07 09:00:59;;;;;;;2.10;1.80;;;10.50;99.90;;;;;;5077744;28;20538;-50
2021/05/07 09:03:25;;;;;;;2.00;1.90;;;10.50;99.90;;;;;;5077478;28;20178;-49
2021/05/07 09:05:51;;;;;;;2.10;2.00;;;10.60;99.90;;;;;;5045798;28;20668;-56
2021/05/07 09:08:17;;;;;;;1.90;1.80;;;10.70;99.90;;;;;;5056947;28;20178;-50
2021/05/07 09:10:45;;;;;;;2.20;2.00;;;10.70;99.90;;;;;;5064421;28;20185;-55
2021/05/07 09:13:14;;;;;;;2.20;2.10;;;10.70;99.90;;;;;;5076480;28;20645;-55
2021/05/07 09:15:44;;;;;;;2.27;2.10;;;10.80;99.90;;;;;;5076898;28;20186;-58
2021/05/07 09:18:12;;;;;;;2.10;2.00;;;11.10;99.90;;;;;;5076976;28;20247;-60
2021/05/07 09:20:40;;;;;;;2.10;1.83;;;11.00;99.90;;;;;;5076982;28;20228;-55
2021/05/07 09:23:11;;;;;;;4.57;2.00;;;10.90;99.90;;;;;;5075605;28;20240;-58
2021/05/07 09:25:38;;;;;;;1.73;1.63;;;10.80;99.90;;;;;;5077077;28;20151;-52
2021/05/07 09:28:10;;;;;;;2.20;2.00;;;10.90;99.90;;;;;;5076328;28;20174;-61
2021/05/07 09:30:36;;;;;;;1.70;1.60;;;10.90;99.90;;;;;;5076597;28;20261;-56
2021/05/07 09:33:06;;;;;;;1.77;1.67;;;10.80;99.90;;;;;;5079626;28;20642;-63
2021/05/07 09:35:32;;;;;;;1.90;1.80;;;10.70;99.90;;;;;;5076351;28;20174;-55
2021/05/07 09:38:05;;;;;;;2.10;1.90;;;10.60;99.90;;;;;;5079978;28;20217;-50
2021/05/07 09:40:31;;;;;;;1.60;1.50;;;10.40;99.90;;;;;;5081059;28;20159;-51
2021/05/07 09:43:15;;;;;;;1.90;1.80;;;10.00;99.90;;;;;;5066069;28;20186;-49
2021/05/07 09:45:43;;;;;;;2.00;1.90;;;9.90;99.90;;;;;;5056750;28;20232;-55
2021/05/07 09:48:25;;;;;;;2.07;1.90;;;9.90;99.90;;;;;;5059221;28;20187;-61
2021/05/07 09:51:02;;;;;;;2.03;1.87;;;9.90;99.90;;;;;;5056536;28;20179;-50
2021/05/07 09:53:33;;;;;;;2.40;2.20;;;9.90;99.90;;;;;;5056690;28;20164;-55
2021/05/07 09:56:00;;;;;;;2.30;2.10;;;10.00;99.90;;;;;;5055825;28;20669;-52
2021/05/07 09:58:27;;;;;;;2.50;2.10;;;10.10;99.90;;;;;;5057173;28;20229;-60
2021/05/07 10:00:55;;;;;;;2.37;2.20;;;10.00;99.90;;;;;;5057276;28;20187;-52
2021/05/07 10:03:21;;;;;;;2.47;2.27;;;10.10;99.90;;;;;;5056393;28;20258;-57
2021/05/07 10:05:47;;;;;;;2.50;2.30;;;10.00;99.90;;;;;;5056116;28;20198;-59
2021/05/07 10:08:12;;;;;;;2.40;2.20;;;10.10;99.90;;;;;;5055494;28;20704;-52
2021/05/07 10:10:41;;;;;;;2.17;2.07;;;10.20;99.90;;;;;;5074508;28;20217;-53
2021/05/07 10:13:15;;;;;;;1.70;1.60;;;10.30;99.90;;;;;;5075176;28;20189;-56
2021/05/07 10:15:42;;;;;;;1.40;1.30;;;10.20;99.90;;;;;;5075512;28;20237;-54
2021/05/07 10:18:10;;;;;;;1.27;1.20;;;10.20;99.90;;;;;;5075061;28;20221;-58
2021/05/07 10:20:39;;;;;;;1.20;1.20;;;10.20;99.90;;;;;;5074519;28;20257;-50
2021/05/07 10:23:21;;;;;;;3.33;1.50;;;10.10;99.90;;;;;;5074203;28;20210;-56
2021/05/07 10:25:57;;;;;;;1.40;1.30;;;10.00;99.90;;;;;;5054956;28;20228;-55
2021/05/07 10:28:24;;;;;;;1.50;1.40;;;10.00;99.90;;;;;;5055639;28;20194;-52
2021/05/07 10:30:50;;;;;;;1.40;1.30;;;10.00;99.90;;;;;;5054477;28;20225;-57
2021/05/07 10:33:18;;;;;;;2.50;1.40;;;10.10;99.90;;;;;;5055195;28;20631;-59
2021/05/07 10:35:48;;;;;;;1.80;1.70;;;10.20;99.90;;;;;;5054708;28;20531;-58
2021/05/07 10:38:18;;;;;;;1.90;1.50;;;10.50;99.90;;;;;;5055416;28;20206;-60
2021/05/07 10:40:45;;;;;;;2.47;2.30;;;10.80;99.90;;;;;;5056105;28;20262;-51
2021/05/07 10:43:11;;;;;;;1.87;1.77;;;11.20;99.90;;;;;;5056804;28;20175;-59
2021/05/07 10:45:52;;;;;;;2.00;1.90;;;11.40;99.90;;;;;;5058542;28;20221;-60
2021/05/07 10:48:20;;;;;;;2.17;1.97;;;11.30;99.90;;;;;;5056466;28;20175;-50
2021/05/07 10:50:48;;;;;;;2.30;2.10;;;11.10;99.90;;;;;;5055744;28;20255;-49
2021/05/07 10:53:34;;;;;;;2.03;1.93;;;10.90;99.90;;;;;;5054592;28;20198;-60
2021/05/07 10:56:00;;;;;;;2.10;2.00;;;10.80;99.90;;;;;;5055951;28;20203;-59
2021/05/07 10:58:36;;;;;;;1.97;1.87;;;11.00;99.90;;;;;;5056538;28;20179;-49
2021/05/07 11:01:21;;;;;;;2.00;1.80;;;11.10;99.90;;;;;;5056186;28;20171;-56
2021/05/07 11:04:04;;;;;;;2.00;1.90;;;10.80;99.90;;;;;;5055909;28;20179;-53
2021/05/07 11:06:42;;;;;;;1.97;1.87;;;10.60;99.90;;;;;;5055667;28;20669;-58
2021/05/07 11:09:21;;;;;;;2.10;2.00;;;10.50;99.90;;;;;;5054888;28;20175;-50
2021/05/07 11:11:49;;;;;;;2.70;1.90;;;10.50;99.90;;;;;;5055037;28;20224;-61
2021/05/07 11:14:17;;;;;;;1.80;1.70;;;10.70;99.90;;;;;;5055501;28;20172;-55
2021/05/07 11:16:45;;;;;;;1.60;1.50;;;10.70;99.90;;;;;;5054813;28;20194;-52
2021/05/07 11:19:24;;;;;;;1.67;1.57;;;10.60;99.90;;;;;;5055069;28;20599;-57
2021/05/07 11:21:56;;;;;;;1.40;1.30;;;10.50;99.90;;;;;;5055186;28;20246;-51
2021/05/07 11:24:23;;;;;;;1.70;1.60;;;10.20;99.90;;;;;;5054539;28;20179;-55
2021/05/07 11:26:49;;;;;;;1.70;1.60;;;10.00;99.90;;;;;;5054288;28;20195;-58
2021/05/07 11:29:33;;;;;;;1.67;1.57;;;10.00;99.90;;;;;;5055021;28;20597;-58
2021/05/07 11:32:13;;;;;;;3.40;1.53;;;10.00;99.90;;;;;;5055417;28;20186;-61
2021/05/07 11:34:39;;;;;;;2.00;1.87;;;10.00;99.90;;;;;;5054703;28;20167;-59
2021/05/07 11:37:05;;;;;;;1.80;1.70;;;10.20;99.90;;;;;;5055458;28;20215;-55
2021/05/07 11:39:31;;;;;;;2.00;1.90;;;10.20;99.90;;;;;;5055397;28;20163;-55
2021/05/07 11:41:56;;;;;;;2.20;2.00;;;10.20;99.90;;;;;;5054846;28;20173;-61
2021/05/07 11:44:22;;;;;;;1.83;1.73;;;10.30;99.90;;;;;;5054954;28;20171;-50
2021/05/07 11:47:05;;;;;;;2.00;1.90;;;10.40;99.90;;;;;;5054324;28;20659;-57
2021/05/07 11:49:33;;;;;;;1.13;1.10;;;10.50;99.90;;;;;;5054877;28;20175;-51
2021/05/07 11:51:58;;;;;;;1.50;1.40;;;10.70;99.90;;;;;;5053970;28;20225;-51
2021/05/07 11:54:24;;;;;;;0.90;0.90;;;11.10;99.90;;;;;;5054411;28;20175;-52
2021/05/07 11:56:55;;;;;;;1.20;1.10;;;11.50;99.90;;;;;;5036166;28;20606;-55
2021/05/07 11:59:21;;;;;;;1.43;1.20;;;11.50;99.90;;;;;;5054928;28;20163;-53
2021/05/07 12:01:49;;;;;;;1.40;1.30;;;11.40;99.90;;;;;;5057260;28;20233;-59
2021/05/07 12:04:16;;;;;;;1.20;1.10;;;11.30;99.90;;;;;;5075372;28;20170;-50
2021/05/07 12:06:44;;;;;;;1.03;1.03;;;11.10;99.90;;;;;;5075598;28;20197;-50
2021/05/07 12:09:13;;;;;;;3.27;2.13;;;11.00;99.90;;;;;;5074151;28;20562;-51
2021/05/07 12:11:39;;;;;;;1.30;1.13;;;11.20;99.90;;;;;;5074366;28;20178;-50
2021/05/07 12:14:12;;;;;;;1.83;1.73;;;11.40;99.90;;;;;;5075412;28;20209;-53
2021/05/07 12:16:38;;;;;;;1.83;1.70;;;11.50;99.90;;;;;;5076012;28;20213;-59
2021/05/07 12:19:05;;;;;;;1.80;1.70;;;11.40;99.90;;;;;;5075135;28;20216;-51
2021/05/07 12:21:43;;;;;;;1.70;1.60;;;11.50;99.90;;;;;;5074480;28;20660;-61
2021/05/07 12:24:12;;;;;;;1.70;1.60;;;11.80;99.90;;;;;;5074461;28;20178;-56
2021/05/07 12:26:50;;;;;;;1.53;1.43;;;12.30;99.90;;;;;;5075495;28;20198;-50
2021/05/07 12:29:16;;;;;;;1.70;1.60;;;12.40;99.90;;;;;;5074172;28;20216;-49
2021/05/07 12:31:43;;;;;;;1.70;1.60;;;12.50;99.90;;;;;;5074498;28;20175;-56
2021/05/07 12:34:19;;;;;;;2.00;1.90;;;12.60;99.90;;;;;;5074990;28;20186;-49
2021/05/07 12:36:57;;;;;;;1.50;1.40;;;12.40;99.90;;;;;;5073560;28;20195;-53
2021/05/07 12:39:26;;;;;;;1.50;1.40;;;12.10;99.90;;;;;;5051752;28;20179;-55
2021/05/07 12:41:56;;;;;;;0.80;0.80;;;11.50;99.90;;;;;;5055320;28;20175;-48
2021/05/07 12:44:22;;;;;;;4.70;3.27;;;10.80;99.90;;;;;;5056735;28;20186;-59
2021/05/07 12:46:48;;;;;;;2.13;1.87;;;10.20;99.90;;;;;;5054495;28;20515;-56
2021/05/07 12:49:15;;;;;;;4.27;1.83;;;9.50;99.90;;;;;;5053952;28;20183;-48
2021/05/07 12:51:40;;;;;;;2.40;2.20;;;9.10;99.90;;;;;;5053258;28;20598;-52
2021/05/07 12:54:06;;;;;;;2.83;2.43;;;8.90;99.90;;;;;;5054525;28;20203;-49
2021/05/07 12:56:32;;;;;;;3.13;2.70;;;8.90;99.90;;;;;;5055340;28;20662;-52